Time;durP1;ratioP1;P1;durP2;ratioP2;P2;SDS_P1;SDS_P2;PMS_P1;PMS_P2;Temp;Humidity;BMP_temperature;BMP_pressure;BME280_temperature;BME280_humidity;BME280_pressure;Samples;Min_cycle;Max_cycle;Signal;HPM_P1;HPM_P2
2022/11/21 00:01:33;;;;;;;31.55;18.05;;;2.60;99.90;;;-144.05;79.77;125687.94;5012788;28;20494;-77
2022/11/21 00:03:59;;;;;;;28.10;17.70;;;2.60;99.90;;;-144.05;79.90;125687.94;4999189;28;20096;-79
2022/11/21 00:06:25;;;;;;;29.90;18.00;;;2.60;99.90;;;-144.05;79.25;125687.94;5013120;28;20038;-77
2022/11/21 00:08:51;;;;;;;26.63;17.50;;;2.60;99.90;;;-144.05;79.58;125687.94;5012997;28;20041;-78
2022/11/21 00:11:17;;;;;;;31.15;19.13;;;2.60;99.90;;;-144.05;79.79;125687.94;5027552;28;20053;-76
2022/11/21 00:13:44;;;;;;;33.97;19.20;;;2.60;99.90;;;-144.05;79.65;125687.94;5012883;28;20195;-77
2022/11/21 00:16:14;;;;;;;32.65;19.85;;;2.50;99.90;;;-144.05;79.47;125687.94;5013272;28;20026;-77
2022/11/21 00:18:41;;;;;;;28.63;17.38;;;2.50;99.90;;;-144.05;79.43;125687.94;5011603;28;20101;-77
2022/11/21 00:21:13;;;;;;;27.05;16.67;;;2.50;99.90;;;-144.05;79.25;125687.94;5011674;28;20026;-76
2022/11/21 00:23:39;;;;;;;32.70;17.48;;;2.50;99.90;;;-144.05;79.59;125687.94;5011377;28;20066;-78
2022/11/21 00:26:11;;;;;;;30.95;17.80;;;2.50;99.90;;;-144.05;79.73;125687.94;5013298;28;20042;-76
2022/11/21 00:28:37;;;;;;;26.20;16.23;;;2.50;99.90;;;-144.05;79.98;125687.94;5014559;28;20029;-78
2022/11/21 00:31:05;;;;;;;27.98;17.05;;;2.50;99.90;;;-144.05;79.97;125687.94;5016518;28;20037;-77
2022/11/21 00:33:33;;;;;;;32.10;17.67;;;2.50;99.90;;;-144.05;80.02;125687.94;5016578;28;20370;-77
2022/11/21 00:36:07;;;;;;;26.60;17.17;;;2.50;99.90;;;-144.05;79.62;125687.94;5015085;28;20040;-77
2022/11/21 00:38:33;;;;;;;27.40;16.27;;;2.50;99.90;;;-144.05;79.82;125687.94;5031828;28;20102;-77
2022/11/21 00:40:58;;;;;;;28.88;16.25;;;2.50;99.90;;;-144.05;79.78;125687.94;5016491;28;20516;-77
2022/11/21 00:43:24;;;;;;;27.40;16.55;;;2.50;99.90;;;-144.05;79.82;125687.94;5016487;28;20056;-77
2022/11/21 00:45:50;;;;;;;30.65;16.13;;;2.40;99.90;;;-144.05;79.34;125687.94;5016847;28;20512;-78
2022/11/21 00:48:16;;;;;;;27.00;15.63;;;2.40;99.90;;;-144.05;79.57;125687.94;5016164;28;20045;-76
2022/11/21 00:50:41;;;;;;;25.02;15.38;;;2.40;99.90;;;-144.05;79.27;125687.94;5016491;28;20026;-77
2022/11/21 00:53:07;;;;;;;24.30;15.40;;;2.40;99.90;;;-144.05;79.09;125687.94;5016123;28;20068;-77
2022/11/21 00:55:35;;;;;;;27.70;16.33;;;2.40;99.90;;;-144.05;79.27;125687.94;5031695;28;20025;-77
2022/11/21 00:58:01;;;;;;;27.00;15.68;;;2.30;99.90;;;-144.05;79.32;125687.94;5016271;28;20319;-78
2022/11/21 01:00:27;;;;;;;24.92;14.93;;;2.30;99.90;;;-144.05;79.17;125687.94;5016370;28;20037;-77
2022/11/21 01:02:53;;;;;;;25.17;14.93;;;2.20;99.90;;;-144.05;79.32;125687.94;5015877;28;20030;-77
2022/11/21 01:05:19;;;;;;;26.17;16.33;;;2.20;99.90;;;-144.05;79.22;125687.94;5031185;28;20033;-77
2022/11/21 01:07:48;;;;;;;26.33;15.98;;;2.20;99.90;;;-144.05;79.20;125687.94;5015854;28;20033;-78
2022/11/21 01:10:14;;;;;;;24.55;15.10;;;2.20;99.90;;;-144.05;79.21;125687.94;5015847;28;20018;-77
2022/11/21 01:12:39;;;;;;;26.70;15.35;;;2.20;99.90;;;-144.05;79.37;125687.94;5016338;28;20342;-78
2022/11/21 01:15:07;;;;;;;28.38;16.13;;;2.20;99.90;;;-144.05;79.71;125687.94;5016047;28;20535;-78
2022/11/21 01:17:33;;;;;;;27.75;16.55;;;2.30;99.90;;;-144.05;79.70;125687.94;5031157;28;20057;-77
2022/11/21 01:19:58;;;;;;;26.88;15.25;;;2.30;99.90;;;-144.05;79.82;125687.94;5015678;28;20389;-80
2022/11/21 01:22:24;;;;;;;27.83;15.98;;;2.30;99.90;;;-144.05;79.72;125687.94;5015599;28;20518;-76
2022/11/21 01:24:50;;;;;;;31.60;17.23;;;2.30;99.90;;;-144.05;79.65;125687.94;5015893;28;20536;-76
2022/11/21 01:27:16;;;;;;;24.80;15.38;;;2.30;99.90;;;-144.05;79.70;125687.94;5031230;28;20085;-78
2022/11/21 01:29:42;;;;;;;29.92;17.08;;;2.30;99.90;;;-144.05;79.57;125687.94;5014212;28;20120;-78
2022/11/21 01:32:08;;;;;;;25.20;15.80;;;2.30;99.90;;;-144.05;79.50;125687.94;5015628;28;20026;-75
2022/11/21 01:34:33;;;;;;;29.15;16.30;;;2.30;99.90;;;-144.05;79.36;125687.94;5015509;28;20034;-77
2022/11/21 01:37:00;;;;;;;25.08;15.13;;;2.30;99.90;;;-144.05;79.55;125687.94;5015430;28;20022;-77
2022/11/21 01:39:26;;;;;;;26.88;15.25;;;2.30;99.90;;;-144.05;78.95;125687.94;5014792;28;20029;-78
2022/11/21 01:41:51;;;;;;;24.27;14.23;;;2.20;99.90;;;-144.05;79.35;125687.94;5015877;28;20473;-78
2022/11/21 01:44:25;;;;;;;24.95;15.02;;;2.20;99.90;;;-144.05;79.35;125687.94;5015548;28;20026;-76
2022/11/21 01:46:52;;;;;;;23.20;14.15;;;2.20;99.90;;;-144.05;79.35;125687.94;5015738;28;20030;-77
2022/11/21 01:49:28;;;;;;;24.25;14.40;;;2.20;99.90;;;-144.05;79.31;125687.94;5015499;28;20030;-77
2022/11/21 01:52:03;;;;;;;23.58;14.25;;;2.20;99.90;;;-144.05;79.25;125687.94;5015675;28;20482;-79
2022/11/21 01:55:03;;;;;;;26.52;15.80;;;2.10;99.90;;;-144.05;79.45;125687.94;5015286;28;20125;-78
2022/11/21 01:57:47;;;;;;;24.00;14.30;;;2.10;99.90;;;-144.05;79.28;125687.94;5013459;28;20092;-77
2022/11/21 02:00:27;;;;;;;25.33;14.60;;;2.00;99.90;;;-144.05;79.69;125687.94;5015574;28;20515;-78
2022/11/21 02:03:04;;;;;;;26.45;15.40;;;2.00;99.90;;;-144.05;79.80;125687.94;5015253;28;20097;-78
2022/11/21 02:05:37;;;;;;;24.70;14.93;;;2.00;99.90;;;-144.05;79.80;125687.94;5015368;28;20029;-77
2022/11/21 02:08:14;;;;;;;26.73;15.95;;;2.00;99.90;;;-144.05;79.58;125687.94;5015322;28;20038;-78
2022/11/21 02:11:07;;;;;;;22.13;14.45;;;2.00;99.90;;;-144.05;79.55;125687.94;5015134;28;20026;-79
2022/11/21 02:13:33;;;;;;;24.38;14.57;;;2.00;99.90;;;-144.05;79.47;125687.94;5015239;28;20030;-78
2022/11/21 02:15:59;;;;;;;26.60;14.98;;;2.00;99.90;;;-144.05;79.51;125687.94;5013616;28;20389;-77
2022/11/21 02:18:25;;;;;;;26.45;13.98;;;2.00;99.90;;;-144.05;79.45;125687.94;5014575;28;20021;-77
2022/11/21 02:21:10;;;;;;;23.45;14.13;;;2.00;99.90;;;-144.05;79.47;125687.94;5030151;28;20033;-77
2022/11/21 02:24:05;;;;;;;27.25;14.68;;;2.00;99.90;;;-144.05;79.37;125687.94;5014892;28;20034;-79
2022/11/21 02:26:32;;;;;;;21.97;13.73;;;2.00;99.90;;;-144.05;79.46;125687.94;5014538;28;20481;-76
2022/11/21 02:28:58;;;;;;;23.80;14.20;;;2.00;99.90;;;-144.05;79.49;125687.94;5014252;28;20030;-77
2022/11/21 02:31:24;;;;;;;24.42;14.60;;;1.90;99.90;;;-144.05;79.80;125687.94;5014064;28;20105;-76
2022/11/21 02:33:49;;;;;;;28.08;15.30;;;1.90;99.90;;;-144.05;79.25;125687.94;5029370;28;20473;-77
2022/11/21 02:36:45;;;;;;;22.50;14.18;;;1.90;99.90;;;-144.05;79.42;125687.94;5014043;28;20057;-76
2022/11/21 02:39:28;;;;;;;25.80;15.23;;;1.90;99.90;;;-144.05;79.40;125687.94;5013771;28;20415;-76
2022/11/21 02:42:08;;;;;;;26.85;15.00;;;1.90;99.90;;;-144.05;79.55;125687.94;5014118;28;20461;-77
2022/11/21 02:44:56;;;;;;;25.05;15.48;;;1.90;99.90;;;-144.05;79.43;125687.94;5014060;28;20036;-77
2022/11/21 02:47:23;;;;;;;24.95;16.30;;;1.90;99.90;;;-144.05;79.33;125687.94;5014153;28;20153;-77
2022/11/21 02:50:18;;;;;;;28.48;16.95;;;1.90;99.90;;;-144.05;79.26;125687.94;5013157;28;20026;-76
2022/11/21 02:52:44;;;;;;;28.42;16.15;;;2.00;99.90;;;-144.05;79.52;125687.94;5013772;28;20037;-77
2022/11/21 02:55:12;;;;;;;30.38;16.27;;;1.90;99.90;;;-144.05;79.42;125687.94;5014357;28;20038;-78
2022/11/21 02:57:38;;;;;;;29.65;16.92;;;2.00;99.90;;;-144.05;79.62;125687.94;5014778;28;20485;-78
2022/11/21 03:00:08;;;;;;;31.50;17.67;;;2.00;99.90;;;-144.05;79.63;125687.94;5013988;28;20165;-78
2022/11/21 03:02:35;;;;;;;28.52;17.02;;;2.00;99.90;;;-144.05;79.43;125687.94;5014101;28;20524;-77
2022/11/21 03:05:03;;;;;;;26.23;16.63;;;2.00;99.90;;;-144.05;79.28;125687.94;5014616;28;20442;-78
2022/11/21 03:07:29;;;;;;;28.48;16.35;;;2.00;99.90;;;-144.05;79.46;125687.94;5013895;28;20068;-76
2022/11/21 03:09:56;;;;;;;26.60;15.30;;;2.00;99.90;;;-144.05;79.71;125687.94;5013668;28;20343;-77
2022/11/21 03:12:22;;;;;;;27.05;16.02;;;2.00;99.90;;;-144.05;79.72;125687.94;5013403;28;20366;-77
2022/11/21 03:14:48;;;;;;;27.90;16.55;;;2.00;99.90;;;-144.05;79.90;125687.94;5013598;28;20489;-78
2022/11/21 03:17:14;;;;;;;30.67;17.52;;;2.00;99.90;;;-144.05;79.96;125687.94;5013776;28;20139;-78
2022/11/21 03:19:40;;;;;;;31.75;17.52;;;2.00;99.90;;;-144.05;80.11;125687.94;5013615;28;20426;-78
2022/11/21 03:22:06;;;;;;;33.00;17.67;;;2.00;99.90;;;-144.05;79.82;125687.94;5013456;28;20114;-77
2022/11/21 03:24:32;;;;;;;30.42;17.98;;;2.00;99.90;;;-144.05;79.62;125687.94;5013406;28;20044;-76
2022/11/21 03:26:57;;;;;;;30.40;17.25;;;2.00;99.90;;;-144.05;79.95;125687.94;5013393;28;20040;-77
2022/11/21 03:29:23;;;;;;;32.05;17.90;;;2.00;99.90;;;-144.05;79.58;125687.94;5028317;28;20038;-77
2022/11/21 03:31:49;;;;;;;30.80;17.65;;;2.00;99.90;;;-144.05;79.68;125687.94;5012128;28;20022;-77
2022/11/21 03:34:15;;;;;;;34.58;18.98;;;2.00;99.90;;;-144.05;79.45;125687.94;5011686;28;20083;-77
2022/11/21 03:36:41;;;;;;;33.38;18.17;;;2.00;99.90;;;-144.05;79.51;125687.94;5013391;28;20056;-77
2022/11/21 03:39:07;;;;;;;30.90;18.13;;;2.00;99.90;;;-144.05;79.85;125687.94;5013094;28;20429;-75
2022/11/21 03:41:34;;;;;;;32.72;18.48;;;2.00;99.90;;;-144.05;79.82;125687.94;5013436;28;20022;-79
2022/11/21 03:44:09;;;;;;;34.30;19.83;;;2.00;99.90;;;-144.05;79.58;125687.94;5013413;28;20030;-77
2022/11/21 03:46:40;;;;;;;35.13;19.08;;;2.00;99.90;;;-144.05;79.36;125687.94;5028905;28;20069;-78
2022/11/21 03:49:07;;;;;;;33.25;18.65;;;2.00;99.90;;;-144.05;79.40;125687.94;5013705;28;20084;-76
2022/11/21 03:51:34;;;;;;;34.35;18.85;;;2.00;99.90;;;-144.05;79.65;125687.94;5013810;28;20068;-76
2022/11/21 03:54:01;;;;;;;36.72;19.88;;;2.00;99.90;;;-144.05;79.62;125687.94;5017647;28;20380;-77
2022/11/21 03:56:28;;;;;;;37.85;19.85;;;2.00;99.90;;;-144.05;79.57;125687.94;5021112;28;20060;-78
2022/11/21 03:58:54;;;;;;;34.08;18.08;;;2.00;99.90;;;-144.05;79.74;125687.94;5020949;28;20392;-79
2022/11/21 04:01:22;;;;;;;35.88;19.55;;;2.00;99.90;;;-144.05;79.50;125687.94;5020204;28;20044;-80
2022/11/21 04:03:48;;;;;;;37.15;20.10;;;2.00;99.90;;;-144.05;79.84;125687.94;5020053;28;20029;-79
2022/11/21 04:06:18;;;;;;;40.30;20.85;;;2.00;99.90;;;-144.05;79.85;125687.94;5021738;28;20489;-80
2022/11/21 04:08:44;;;;;;;36.95;20.13;;;2.00;99.90;;;-144.05;80.12;125687.94;5019019;28;20293;-79
2022/11/21 04:11:10;;;;;;;37.30;20.90;;;2.00;99.90;;;-144.05;79.57;125687.94;5019511;28;20030;-78
2022/11/21 04:13:36;;;;;;;36.92;19.20;;;2.00;99.90;;;-144.05;79.58;125687.94;5019743;28;20057;-79
2022/11/21 04:16:03;;;;;;;41.80;20.77;;;2.10;99.90;;;-144.05;80.01;125687.94;5019169;28;20034;-79
2022/11/21 04:18:29;;;;;;;39.05;20.52;;;2.10;99.90;;;-144.05;79.95;125687.94;5020392;28;20390;-77
2022/11/21 04:21:05;;;;;;;38.55;20.10;;;2.00;99.90;;;-144.05;79.57;125687.94;5034730;28;20348;-79
2022/11/21 04:23:31;;;;;;;39.10;21.52;;;2.10;99.90;;;-144.05;79.81;125687.94;5019258;28;20061;-79
2022/11/21 04:25:59;;;;;;;40.25;21.55;;;2.00;99.90;;;-144.05;79.72;125687.94;5020115;28;20045;-77
2022/11/21 04:28:25;;;;;;;40.17;21.25;;;2.00;99.90;;;-144.05;80.01;125687.94;5018756;28;20504;-79
2022/11/21 04:30:51;;;;;;;43.22;21.77;;;2.00;99.90;;;-144.05;79.83;125687.94;5020776;28;20030;-79
2022/11/21 04:33:18;;;;;;;38.55;20.33;;;2.00;99.90;;;-144.05;79.90;125687.94;5020388;28;20038;-80
2022/11/21 04:35:46;;;;;;;39.30;20.27;;;2.00;99.90;;;-144.05;80.05;125687.94;5019629;28;20485;-78
2022/11/21 04:38:13;;;;;;;43.92;21.35;;;2.00;99.90;;;-144.05;79.91;125687.94;5019995;28;20037;-78
2022/11/21 04:40:42;;;;;;;41.88;19.60;;;2.00;99.90;;;-144.05;79.82;125687.94;5020234;28;20030;-80
2022/11/21 04:43:08;;;;;;;41.05;21.33;;;2.00;99.90;;;-144.05;79.77;125687.94;5020769;28;20080;-76
2022/11/21 04:45:33;;;;;;;43.78;22.60;;;2.10;99.90;;;-144.05;79.49;125687.94;5021141;28;20038;-80
2022/11/21 04:47:59;;;;;;;43.10;22.13;;;2.10;99.90;;;-144.05;80.09;125687.94;5019785;28;20026;-78
2022/11/21 04:50:25;;;;;;;44.83;21.48;;;2.10;99.90;;;-144.05;80.00;125687.94;5019533;28;20026;-79
2022/11/21 04:52:55;;;;;;;46.08;22.80;;;2.10;99.90;;;-144.05;80.07;125687.94;5019672;28;20034;-81
2022/11/21 04:55:30;;;;;;;50.28;25.63;;;2.10;99.90;;;-144.05;79.80;125687.94;5020120;28;20049;-79
2022/11/21 04:57:56;;;;;;;42.92;22.08;;;2.10;99.90;;;-144.05;80.15;125687.94;5019345;28;20030;-78
2022/11/21 05:00:22;;;;;;;44.70;22.50;;;2.10;99.90;;;-144.05;79.75;125687.94;5021004;28;20030;-78
2022/11/21 05:02:48;;;;;;;46.92;22.30;;;2.10;99.90;;;-144.05;79.77;125687.94;5019010;28;20059;-79
2022/11/21 05:05:14;;;;;;;47.70;23.48;;;2.10;99.90;;;-144.05;79.97;125687.94;5019701;28;20033;-79
2022/11/21 05:07:40;;;;;;;44.13;22.90;;;2.10;99.90;;;-144.05;79.85;125687.94;5020671;28;20059;-76
2022/11/21 05:10:08;;;;;;;48.15;24.33;;;2.10;99.90;;;-144.05;79.89;125687.94;5016300;28;20444;-77
2022/11/21 05:15:19;;;;;;;50.22;22.80;;;2.10;99.90;;;-144.05;79.61;125687.94;5022721;28;20037;-79
2022/11/21 05:17:45;;;;;;;46.60;23.25;;;2.10;99.90;;;-144.05;79.67;125687.94;5023157;28;20026;-76
2022/11/21 05:20:12;;;;;;;48.47;22.65;;;2.10;99.90;;;-144.05;79.45;125687.94;5023326;28;20032;-79
2022/11/21 05:22:38;;;;;;;45.95;20.77;;;2.10;99.90;;;-144.05;79.45;125687.94;5023871;28;20030;-77
2022/11/21 05:25:04;;;;;;;44.22;21.65;;;2.10;99.90;;;-144.05;79.63;125687.94;5024256;28;20094;-79
2022/11/21 05:27:30;;;;;;;45.85;22.00;;;2.10;99.90;;;-144.05;79.62;125687.94;5023846;28;20030;-78
2022/11/21 05:29:56;;;;;;;46.08;22.60;;;2.10;99.90;;;-144.05;79.87;125687.94;5022884;28;20026;-79
2022/11/21 05:32:23;;;;;;;49.20;25.05;;;2.10;99.90;;;-144.05;80.04;125687.94;5021925;28;20030;-78
2022/11/21 05:34:49;;;;;;;46.85;23.13;;;2.10;99.90;;;-144.05;79.79;125687.94;5020963;28;20021;-79
2022/11/21 05:37:15;;;;;;;48.95;23.08;;;2.20;99.90;;;-144.05;79.85;125687.94;5020621;28;20287;-78
2022/11/21 05:39:41;;;;;;;51.15;23.55;;;2.20;99.90;;;-144.05;79.99;125687.94;5022546;28;20030;-79
2022/11/21 05:42:07;;;;;;;51.30;22.75;;;2.20;99.90;;;-144.05;79.87;125687.94;5021403;28;20371;-78
2022/11/21 05:44:32;;;;;;;52.72;23.25;;;2.20;99.90;;;-144.05;80.16;125687.94;5019675;28;20026;-78
2022/11/21 05:46:58;;;;;;;52.45;22.23;;;2.30;99.90;;;-144.05;80.26;125687.94;5022028;28;20080;-76
2022/11/21 05:49:24;;;;;;;51.42;24.10;;;2.20;99.90;;;-144.05;80.09;125687.94;5020983;28;20030;-77
2022/11/21 05:51:50;;;;;;;59.15;23.98;;;2.20;99.90;;;-144.05;80.37;125687.94;5023951;28;20030;-79
2022/11/21 05:54:16;;;;;;;52.17;24.08;;;2.30;99.90;;;-144.05;80.28;125687.94;5019183;28;20037;-77
2022/11/21 05:56:42;;;;;;;58.67;25.30;;;2.30;99.90;;;-144.05;80.29;125687.94;5020295;28;20076;-77
2022/11/21 05:59:10;;;;;;;53.13;24.10;;;2.30;99.90;;;-144.05;80.54;125687.94;5019802;28;20018;-75
2022/11/21 06:04:21;;;;;;;57.22;23.52;;;2.40;99.90;;;-144.05;80.54;125687.94;5019917;28;20056;-78
2022/11/21 06:06:47;;;;;;;52.47;22.10;;;2.40;99.90;;;-144.05;80.74;125687.94;5019360;28;20536;-77
2022/11/21 06:09:13;;;;;;;62.90;25.70;;;2.40;99.90;;;-144.05;80.92;125687.94;5019502;28;20080;-77
2022/11/21 06:11:39;;;;;;;55.17;24.63;;;2.30;99.90;;;-144.05;80.84;125687.94;5019758;28;20061;-77
2022/11/21 06:14:05;;;;;;;58.03;24.13;;;2.30;99.90;;;-144.05;80.58;125687.94;5019621;28;20122;-77
2022/11/21 06:16:31;;;;;;;59.70;25.95;;;2.30;99.90;;;-144.05;81.13;125687.94;5019027;28;20022;-77
2022/11/21 06:18:57;;;;;;;57.83;24.95;;;2.30;99.90;;;-144.05;81.04;125687.94;5021945;28;20072;-78
2022/11/21 06:21:27;;;;;;;53.40;24.02;;;2.30;99.90;;;-144.05;80.66;125687.94;5021468;28;20033;-77
2022/11/21 06:23:57;;;;;;;57.47;24.23;;;2.40;99.90;;;-144.05;81.22;125687.94;5020736;28;20480;-79
2022/11/21 06:26:27;;;;;;;59.55;26.50;;;2.40;99.90;;;-144.05;80.85;125687.94;5020181;28;20553;-78
2022/11/21 06:28:54;;;;;;;55.20;24.63;;;2.40;99.90;;;-144.05;81.07;125687.94;5018201;28;20497;-75
2022/11/21 06:31:24;;;;;;;63.53;24.85;;;2.40;99.90;;;-144.05;81.25;125687.94;5017747;28;20026;-79
2022/11/21 06:33:57;;;;;;;51.42;23.42;;;2.40;99.90;;;-144.05;81.75;125687.94;5016187;28;20026;-78
2022/11/21 06:36:24;;;;;;;63.53;24.33;;;2.40;99.90;;;-144.05;81.43;125687.94;5015665;28;20026;-76
2022/11/21 06:38:55;;;;;;;57.92;23.75;;;2.50;99.90;;;-144.05;81.22;125687.94;5019695;28;20029;-77
2022/11/21 06:41:25;;;;;;;54.40;23.90;;;2.50;99.90;;;-144.05;81.23;125687.94;5019549;28;20026;-78
2022/11/21 06:43:52;;;;;;;51.78;22.92;;;2.60;99.90;;;-144.05;81.05;125687.94;5017281;28;20038;-77
2022/11/21 06:46:18;;;;;;;54.65;23.58;;;2.60;99.90;;;-144.05;81.17;125687.94;5032275;28;20084;-78
2022/11/21 06:48:44;;;;;;;55.08;23.13;;;2.60;99.90;;;-144.05;81.11;125687.94;5016614;28;20025;-77
2022/11/21 06:51:19;;;;;;;56.13;24.17;;;2.60;99.90;;;-144.05;81.38;125687.94;5034459;28;20026;-77
2022/11/21 06:53:47;;;;;;;56.75;23.65;;;2.70;99.90;;;-144.05;81.87;125687.94;5020924;28;20045;-78
2022/11/21 06:56:14;;;;;;;56.28;24.92;;;2.60;99.90;;;-144.05;81.31;125687.94;5019752;28;20026;-79
2022/11/21 06:58:40;;;;;;;53.83;22.33;;;2.60;99.90;;;-144.05;81.61;125687.94;5020327;28;20030;-79
2022/11/21 07:01:09;;;;;;;55.20;23.77;;;2.70;99.90;;;-144.05;81.05;125687.94;5020297;28;20070;-79
2022/11/21 07:03:36;;;;;;;45.08;21.25;;;2.60;99.90;;;-144.05;81.37;125687.94;5020005;28;20063;-76
2022/11/21 07:06:03;;;;;;;56.22;24.33;;;2.70;99.90;;;-144.05;81.18;125687.94;5030743;28;20060;-78
2022/11/21 07:08:34;;;;;;;52.90;22.92;;;2.70;99.90;;;-144.05;81.26;125687.94;5019979;28;20030;-76
2022/11/21 07:11:08;;;;;;;48.97;23.15;;;2.70;99.90;;;-144.05;81.38;125687.94;5014889;28;20141;-78
2022/11/21 07:13:34;;;;;;;48.72;22.40;;;2.70;99.90;;;-144.05;81.13;125687.94;5014249;28;20034;-76
2022/11/21 07:16:08;;;;;;;49.60;22.25;;;2.80;99.90;;;-144.05;81.41;125687.94;5014068;28;20053;-76
2022/11/21 07:18:36;;;;;;;54.08;23.75;;;2.80;99.90;;;-144.05;81.31;125687.94;5015006;28;20030;-76
2022/11/21 07:21:05;;;;;;;52.80;23.05;;;2.80;99.90;;;-144.05;81.14;125687.94;5016738;28;20033;-77
2022/11/21 07:23:33;;;;;;;51.13;22.98;;;2.80;99.90;;;-144.05;81.24;125687.94;5033249;28;20025;-78
2022/11/21 07:26:02;;;;;;;49.60;22.42;;;2.90;99.90;;;-144.05;81.22;125687.94;5018885;28;20087;-78
2022/11/21 07:28:29;;;;;;;54.08;23.90;;;2.90;99.90;;;-144.05;81.13;125687.94;5016354;28;20182;-79
2022/11/21 07:31:02;;;;;;;52.92;24.05;;;2.90;99.90;;;-144.05;81.10;125687.94;5017910;28;20030;-79
2022/11/21 07:33:28;;;;;;;48.28;22.67;;;3.00;99.90;;;-144.05;81.05;125687.94;5016461;28;20085;-76
2022/11/21 07:35:56;;;;;;;50.70;23.85;;;3.00;99.90;;;-144.05;81.13;125687.94;5015007;28;20172;-78
2022/11/21 07:38:25;;;;;;;47.67;22.00;;;3.00;99.90;;;-144.05;81.25;125687.94;5016557;28;20096;-76
2022/11/21 07:40:52;;;;;;;55.72;24.38;;;3.00;99.90;;;-144.05;81.07;125687.94;5016451;28;20026;-75
2022/11/21 07:43:18;;;;;;;57.88;24.20;;;3.00;99.90;;;-144.05;81.41;125687.94;5016088;28;20086;-78
2022/11/21 07:45:44;;;;;;;48.85;22.50;;;3.10;99.90;;;-144.05;81.18;125687.94;5017178;28;20029;-80
2022/11/21 07:48:10;;;;;;;50.15;22.30;;;3.20;99.90;;;-144.05;81.28;125687.94;5018800;28;20021;-78
2022/11/21 07:50:36;;;;;;;47.60;22.98;;;3.20;99.90;;;-144.05;81.54;125687.94;5018856;28;20106;-76
2022/11/21 07:53:06;;;;;;;57.10;22.83;;;3.30;99.90;;;-144.05;81.28;125687.94;5018679;28;20062;-78
2022/11/21 07:55:33;;;;;;;53.60;23.35;;;3.40;99.90;;;-144.05;81.61;125687.94;5018635;28;20026;-77
2022/11/21 07:58:14;;;;;;;49.30;23.20;;;3.40;99.90;;;-144.05;81.44;125687.94;5015595;28;20033;-78
2022/11/21 08:00:44;;;;;;;56.30;24.08;;;3.40;99.90;;;-144.05;81.91;125687.94;5029579;28;20334;-77
2022/11/21 08:03:12;;;;;;;50.17;22.10;;;3.40;99.90;;;-144.05;81.62;125687.94;5029303;28;20030;-78
2022/11/21 08:05:42;;;;;;;52.13;21.75;;;3.50;99.90;;;-144.05;81.56;125687.94;5013032;28;20026;-75
2022/11/21 08:08:11;;;;;;;56.33;23.58;;;3.50;99.90;;;-144.05;81.37;125687.94;5015592;28;20069;-78
2022/11/21 08:10:42;;;;;;;52.45;22.75;;;3.60;99.90;;;-144.05;81.40;125687.94;5030404;28;20022;-78
2022/11/21 08:13:09;;;;;;;51.42;21.35;;;3.60;99.90;;;-144.05;81.39;125687.94;5014782;28;20511;-75
2022/11/21 08:15:36;;;;;;;51.20;23.33;;;3.60;99.90;;;-144.05;81.48;125687.94;5031234;28;20040;-77
2022/11/21 08:18:19;;;;;;;49.53;22.08;;;3.70;99.90;;;-144.05;81.39;125687.94;5015544;28;20037;-78
2022/11/21 08:20:46;;;;;;;53.72;22.77;;;3.70;99.90;;;-144.05;81.31;125687.94;5031121;28;20148;-78
2022/11/21 08:23:12;;;;;;;50.80;22.88;;;3.70;99.90;;;-144.05;81.17;125687.94;5015716;28;20026;-76
2022/11/21 08:25:41;;;;;;;53.58;22.15;;;3.80;99.90;;;-144.05;81.33;125687.94;5016057;28;20033;-77
2022/11/21 08:28:10;;;;;;;50.65;22.90;;;3.80;99.90;;;-144.05;81.36;125687.94;5016425;28;20092;-77
2022/11/21 08:30:37;;;;;;;54.22;22.92;;;3.80;99.90;;;-144.05;81.24;125687.94;5015381;28;20120;-78
2022/11/21 08:33:05;;;;;;;49.05;21.63;;;3.80;99.90;;;-144.05;80.77;125687.94;5016506;28;20156;-80
2022/11/21 08:35:34;;;;;;;47.88;20.73;;;3.80;99.90;;;-144.05;80.40;125687.94;5015668;28;20026;-78
2022/11/21 08:38:01;;;;;;;54.60;22.90;;;3.90;99.90;;;-144.05;81.09;125687.94;5031729;28;20037;-78
2022/11/21 08:40:31;;;;;;;54.97;22.38;;;4.00;99.90;;;-144.05;80.55;125687.94;5015072;28;20116;-77
2022/11/21 08:43:03;;;;;;;50.33;21.83;;;4.00;99.90;;;-144.05;80.50;125687.94;5017246;28;20044;-77
2022/11/21 08:45:32;;;;;;;50.33;21.02;;;4.10;99.90;;;-144.05;80.42;125687.94;5015971;28;20026;-78
2022/11/21 08:47:58;;;;;;;52.03;21.40;;;4.20;99.90;;;-144.05;80.27;125687.94;5019143;28;20033;-76
2022/11/21 08:50:26;;;;;;;47.75;20.65;;;4.20;99.90;;;-144.05;80.11;125687.94;5035529;28;20492;-78
2022/11/21 08:53:00;;;;;;;43.08;19.50;;;4.30;99.90;;;-144.05;80.30;125687.94;5020065;28;20078;-77
2022/11/21 08:55:26;;;;;;;50.85;20.52;;;4.20;99.90;;;-144.05;79.59;125687.94;5019264;28;20030;-75
2022/11/21 08:57:52;;;;;;;47.15;18.60;;;4.20;99.90;;;-144.05;79.97;125687.94;5018770;28;20029;-80
2022/11/21 09:00:18;;;;;;;49.75;19.92;;;4.30;99.90;;;-144.05;79.83;125687.94;5039296;28;20037;-78
2022/11/21 09:02:44;;;;;;;42.97;18.17;;;4.30;99.90;;;-144.05;79.90;125687.94;5026922;28;20092;-76
2022/11/21 09:05:10;;;;;;;45.50;18.80;;;4.30;99.90;;;-144.05;79.51;125687.94;5024988;28;20037;-77
2022/11/21 09:07:36;;;;;;;59.80;20.15;;;4.30;99.90;;;-144.05;79.16;125687.94;5020730;28;20433;-78
2022/11/21 09:10:02;;;;;;;62.25;19.83;;;4.30;99.90;;;-144.05;79.22;125687.94;5019584;28;20048;-78
2022/11/21 09:12:30;;;;;;;51.50;18.83;;;4.40;99.90;;;-144.05;78.90;125687.94;5018557;28;20042;-77
2022/11/21 09:20:24;;;;;;;54.67;20.33;;;4.50;99.90;;;-144.05;78.87;125687.94;5020717;28;20037;-78
2022/11/21 09:22:51;;;;;;;53.33;21.15;;;4.50;99.90;;;-144.05;78.85;125687.94;5019552;28;20033;-77
2022/11/21 09:25:16;;;;;;;48.83;19.75;;;4.50;99.90;;;-144.05;78.94;125687.94;5019309;28;20091;-78
2022/11/21 09:27:42;;;;;;;53.88;19.85;;;4.50;99.90;;;-144.05;79.05;125687.94;5034346;28;20034;-77
2022/11/21 09:30:09;;;;;;;54.38;21.42;;;4.50;99.90;;;-144.05;79.18;125687.94;5019040;28;20165;-79
2022/11/21 09:32:35;;;;;;;47.17;19.20;;;4.50;99.90;;;-144.05;78.82;125687.94;5020932;28;20034;-76
2022/11/21 09:35:02;;;;;;;51.80;22.20;;;4.50;99.90;;;-144.05;78.55;125687.94;5018672;28;20485;-75
2022/11/21 09:37:28;;;;;;;50.22;20.08;;;4.50;99.90;;;-144.05;78.62;125687.94;5018142;28;20152;-80
2022/11/21 09:39:53;;;;;;;47.38;20.20;;;4.60;99.90;;;-144.05;78.61;125687.94;5017525;28;20084;-79
2022/11/21 09:42:56;;;;;;;48.78;20.08;;;4.60;99.90;;;-144.05;78.42;125687.94;5019134;28;20397;-75
2022/11/21 09:45:33;;;;;;;51.33;20.88;;;4.60;99.90;;;-144.05;78.86;125687.94;5035022;28;20034;-77
2022/11/21 09:48:10;;;;;;;47.70;20.15;;;4.60;99.90;;;-144.05;78.80;125687.94;5019197;28;20026;-78
2022/11/21 09:50:48;;;;;;;64.97;21.75;;;4.70;99.90;;;-144.05;78.97;125687.94;5020174;28;20064;-78
2022/11/21 09:53:33;;;;;;;48.55;20.73;;;4.70;99.90;;;-144.05;79.03;125687.94;5016806;28;20038;-78
2022/11/21 09:56:12;;;;;;;54.05;21.75;;;4.80;99.90;;;-144.05;78.86;125687.94;5013868;28;20036;-79
2022/11/21 09:58:54;;;;;;;51.95;20.85;;;4.80;99.90;;;-144.05;78.90;125687.94;5014857;28;20026;-78
2022/11/21 10:01:20;;;;;;;57.22;22.80;;;4.90;99.90;;;-144.05;78.43;125687.94;5013360;28;20120;-78
2022/11/21 10:03:51;;;;;;;51.70;22.13;;;5.00;99.90;;;-144.05;78.79;125687.94;5014677;28;20527;-80
2022/11/21 10:06:28;;;;;;;51.75;21.13;;;5.00;99.90;;;-144.05;78.77;125687.94;5014690;28;20496;-79
2022/11/21 10:09:18;;;;;;;60.92;23.13;;;5.10;99.90;;;-144.05;78.91;125687.94;5014550;28;20038;-77
2022/11/21 10:12:36;;;;;;;52.55;22.15;;;5.10;99.90;;;-144.05;78.83;125687.94;5013110;28;20022;-78